createdAt,value
2023-02-11T00:02:02.642Z,23.25
2023-02-11T00:04:19.102Z,23.52
2023-02-11T00:06:35.772Z,24.33
2023-02-11T00:08:52.229Z,22.40
2023-02-11T00:11:08.662Z,23.13
2023-02-11T00:13:25.395Z,24.58
2023-02-11T00:15:41.869Z,23.40
2023-02-11T00:17:58.560Z,24.17
2023-02-11T00:20:15.017Z,24.25
2023-02-11T00:22:31.469Z,23.80
2023-02-11T00:24:47.973Z,24.83
2023-02-11T00:27:04.424Z,24.27
2023-02-11T00:29:20.837Z,24.00
2023-02-11T00:31:37.431Z,23.35
2023-02-11T00:33:54.156Z,22.90
2023-02-11T00:36:10.809Z,22.67
2023-02-11T00:38:27.326Z,24.17
2023-02-11T00:40:44.004Z,23.45
2023-02-11T00:43:00.778Z,24.58
2023-02-11T00:45:17.481Z,22.83
2023-02-11T00:47:34.189Z,23.52
2023-02-11T00:49:50.576Z,24.05
2023-02-11T00:52:07.082Z,24.05
2023-02-11T00:54:23.707Z,23.75
2023-02-11T00:56:40.153Z,24.00
2023-02-11T00:58:56.523Z,24.75
2023-02-11T01:01:13.083Z,24.33
2023-02-11T01:03:29.850Z,24.95
2023-02-11T01:05:46.338Z,24.80
2023-02-11T01:08:03.006Z,25.10
2023-02-11T01:10:19.765Z,25.73
2023-02-11T01:12:36.644Z,24.98
2023-02-11T01:14:53.115Z,25.35
2023-02-11T01:17:09.454Z,24.35
2023-02-11T01:19:25.919Z,24.13
2023-02-11T01:21:42.654Z,22.63
2023-02-11T01:23:59.095Z,25.65
2023-02-11T01:26:15.744Z,24.50
2023-02-11T01:28:32.460Z,25.30
2023-02-11T01:30:49.174Z,26.05
2023-02-11T01:33:05.614Z,25.08
2023-02-11T01:35:22.024Z,24.55
2023-02-11T01:37:38.719Z,23.40
2023-02-11T01:39:55.190Z,25.15
2023-02-11T01:42:11.483Z,25.25
2023-02-11T01:44:27.781Z,22.85
2023-02-11T01:46:44.501Z,25.23
2023-02-11T01:49:01.103Z,24.67
2023-02-11T01:51:17.860Z,25.08
2023-02-11T01:53:34.315Z,24.60
2023-02-11T01:55:51.257Z,24.23
2023-02-11T01:58:07.898Z,24.48
2023-02-11T02:00:24.285Z,24.55
2023-02-11T02:02:40.882Z,24.77
2023-02-11T02:04:57.536Z,23.13
2023-02-11T02:07:15.500Z,23.45
2023-02-11T02:09:31.929Z,24.60
2023-02-11T02:11:48.330Z,24.90
2023-02-11T02:14:04.851Z,25.38
2023-02-11T02:16:21.474Z,25.50
2023-02-11T02:18:38.137Z,24.00
2023-02-11T02:20:54.634Z,24.02
2023-02-11T02:23:11.399Z,23.80
2023-02-11T02:25:28.040Z,24.35
2023-02-11T02:27:44.486Z,24.75
2023-02-11T02:30:00.869Z,24.65
2023-02-11T02:32:17.575Z,24.73
2023-02-11T02:34:34.085Z,24.75
2023-02-11T02:36:50.485Z,25.20
2023-02-11T02:39:07.133Z,23.38
2023-02-11T02:41:23.680Z,23.92
2023-02-11T02:43:40.141Z,26.55
2023-02-11T02:45:56.876Z,25.70
2023-02-11T02:48:13.347Z,25.98
2023-02-11T02:50:29.796Z,25.38
2023-02-11T02:52:46.183Z,23.60
2023-02-11T02:55:02.657Z,24.15
2023-02-11T02:57:18.958Z,23.88
2023-02-11T02:59:35.633Z,23.85
2023-02-11T03:01:52.035Z,24.33
2023-02-11T03:04:08.480Z,24.15
2023-02-11T03:06:25.145Z,24.77
2023-02-11T03:08:41.634Z,25.05
2023-02-11T03:10:58.335Z,24.83
2023-02-11T03:13:14.724Z,25.55
2023-02-11T03:15:31.158Z,24.50
2023-02-11T03:17:47.614Z,26.02
2023-02-11T03:20:04.260Z,25.58
2023-02-11T03:22:20.683Z,26.17
2023-02-11T03:24:37.158Z,24.08
2023-02-11T03:26:53.896Z,24.30
2023-02-11T03:29:10.546Z,24.30
2023-02-11T03:31:27.130Z,24.67
2023-02-11T03:33:43.648Z,24.35
2023-02-11T03:36:00.392Z,25.02
2023-02-11T03:38:16.810Z,24.80
2023-02-11T03:40:33.198Z,24.23
2023-02-11T03:42:49.835Z,24.38
2023-02-11T03:45:06.220Z,23.40
2023-02-11T03:47:22.864Z,22.75
2023-02-11T03:49:39.541Z,22.35
2023-02-11T03:51:56.022Z,22.25
2023-02-11T03:54:12.450Z,23.05
2023-02-11T03:56:29.089Z,22.92
2023-02-11T03:58:45.731Z,24.05
2023-02-11T04:01:02.428Z,24.00
2023-02-11T04:03:19.055Z,23.50
2023-02-11T04:05:35.444Z,23.58
2023-02-11T04:07:51.888Z,22.17
2023-02-11T04:10:08.355Z,22.17
2023-02-11T04:12:24.689Z,22.20
2023-02-11T04:14:41.336Z,22.50
2023-02-11T04:16:57.751Z,23.75
2023-02-11T04:19:14.058Z,23.05
2023-02-11T04:21:30.518Z,23.45
2023-02-11T04:23:47.292Z,22.40
2023-02-11T04:26:03.750Z,22.23
2023-02-11T04:28:20.301Z,20.92
2023-02-11T04:30:36.782Z,21.58
2023-02-11T04:32:53.229Z,20.45
2023-02-11T04:35:09.955Z,19.92
2023-02-11T04:37:26.217Z,20.33
2023-02-11T04:39:42.921Z,20.48
2023-02-11T04:41:59.579Z,19.45
2023-02-11T04:44:16.230Z,20.42
2023-02-11T04:46:32.990Z,21.42
2023-02-11T04:48:49.699Z,22.10
2023-02-11T04:51:06.087Z,21.67
2023-02-11T04:53:22.385Z,22.33
2023-02-11T04:55:39.091Z,22.92
2023-02-11T04:57:55.618Z,21.67
2023-02-11T05:00:11.915Z,22.73
2023-02-11T05:02:28.635Z,22.30
2023-02-11T05:04:45.257Z,21.90
2023-02-11T05:07:01.840Z,21.60
2023-02-11T05:09:20.696Z,22.20
2023-02-11T05:11:37.047Z,21.63
2023-02-11T05:13:53.684Z,22.77
2023-02-11T05:16:10.208Z,22.65
2023-02-11T05:18:26.892Z,21.73
2023-02-11T05:20:47.050Z,21.77
2023-02-11T05:23:03.599Z,22.17
2023-02-11T05:25:20.251Z,21.33
2023-02-11T05:27:37.178Z,21.92
2023-02-11T05:29:53.579Z,21.58
2023-02-11T05:32:10.180Z,21.80
2023-02-11T05:34:28.918Z,22.85
2023-02-11T05:36:45.367Z,21.48
2023-02-11T05:39:02.037Z,21.60
2023-02-11T05:41:18.374Z,20.83
2023-02-11T05:43:34.842Z,20.95
2023-02-11T05:45:51.600Z,22.00
2023-02-11T05:48:08.186Z,22.52
2023-02-11T05:50:24.632Z,20.70
2023-02-11T05:52:41.062Z,20.45
2023-02-11T05:54:57.820Z,20.70
2023-02-11T05:57:14.490Z,19.67
2023-02-11T05:59:30.900Z,21.00
2023-02-11T06:01:47.542Z,21.67
2023-02-11T06:04:04.247Z,20.15
2023-02-11T06:06:20.693Z,20.05
2023-02-11T06:08:39.183Z,20.08
2023-02-11T06:10:55.912Z,20.00
2023-02-11T06:13:12.391Z,21.15
2023-02-11T06:15:28.754Z,21.98
2023-02-11T06:17:45.215Z,21.17
2023-02-11T06:20:01.736Z,21.55
2023-02-11T06:22:18.458Z,20.33
2023-02-11T06:24:58.520Z,22.27
2023-02-11T06:27:11.416Z,21.60
2023-02-11T06:29:28.712Z,21.75
2023-02-11T06:31:45.378Z,21.23
2023-02-11T06:34:01.738Z,21.83
2023-02-11T06:36:18.512Z,21.52
2023-02-11T06:38:34.978Z,20.10
2023-02-11T06:40:51.405Z,23.02
2023-02-11T06:43:07.847Z,21.45
2023-02-11T06:45:24.288Z,19.90
2023-02-11T06:47:40.961Z,22.23
2023-02-11T06:49:57.684Z,23.83
2023-02-11T06:52:14.030Z,22.90
2023-02-11T06:54:30.805Z,22.70
2023-02-11T06:56:47.434Z,22.10
2023-02-11T06:59:04.151Z,22.13
2023-02-11T07:01:20.579Z,23.73
2023-02-11T07:03:37.099Z,26.77
2023-02-11T07:05:53.920Z,26.45
2023-02-11T07:08:10.617Z,26.98
2023-02-11T07:10:27.065Z,27.80
2023-02-11T07:12:43.523Z,27.25
2023-02-11T07:15:00.033Z,28.90
2023-02-11T07:17:16.739Z,30.05
2023-02-11T07:19:33.404Z,29.67
2023-02-11T07:21:50.104Z,27.40
2023-02-11T07:24:08.855Z,27.88
2023-02-11T07:26:28.219Z,26.92
2023-02-11T07:28:44.726Z,26.58
2023-02-11T07:31:01.576Z,27.17
2023-02-11T07:33:18.525Z,26.92
2023-02-11T07:35:35.218Z,29.30
2023-02-11T07:37:51.743Z,30.15
2023-02-11T07:40:08.243Z,36.80
2023-02-11T07:42:24.708Z,37.67
2023-02-11T07:44:41.454Z,36.45
2023-02-11T07:46:58.291Z,37.22
2023-02-11T07:49:15.024Z,34.65
2023-02-11T07:51:31.545Z,33.55
2023-02-11T07:53:49.362Z,33.35
2023-02-11T07:56:06.103Z,32.65
2023-02-11T07:58:22.450Z,33.83
2023-02-11T08:00:38.986Z,38.13
2023-02-11T08:02:55.409Z,37.47
2023-02-11T08:05:12.129Z,35.70
2023-02-11T08:07:28.616Z,32.83
2023-02-11T08:09:45.401Z,31.70
2023-02-11T08:12:01.736Z,35.10
2023-02-11T08:14:18.152Z,34.17
2023-02-11T08:16:34.929Z,36.17
2023-02-11T08:18:51.481Z,36.00
2023-02-11T08:21:08.008Z,37.25
2023-02-11T08:23:24.742Z,35.70
2023-02-11T08:25:41.516Z,36.90
2023-02-11T08:27:59.303Z,37.38
2023-02-11T08:30:15.663Z,36.90
2023-02-11T08:32:32.129Z,36.05
2023-02-11T08:34:48.493Z,35.72
2023-02-11T08:37:04.877Z,38.42
2023-02-11T08:39:21.345Z,41.70
2023-02-11T08:41:37.822Z,37.78
2023-02-11T08:43:54.283Z,36.30
2023-02-11T08:46:10.832Z,34.65
2023-02-11T08:48:27.626Z,33.47
2023-02-11T08:50:44.158Z,32.38
2023-02-11T08:53:00.829Z,32.58
2023-02-11T08:55:17.325Z,33.05
2023-02-11T08:57:34.148Z,30.52
2023-02-11T08:59:50.485Z,31.63
2023-02-11T09:02:07.225Z,30.98
2023-02-11T09:04:23.942Z,29.92
2023-02-11T09:06:40.386Z,30.25
2023-02-11T09:08:56.897Z,29.92
2023-02-11T09:11:13.150Z,28.13
2023-02-11T09:13:29.911Z,28.15
2023-02-11T09:15:46.691Z,27.77
2023-02-11T09:18:03.206Z,27.00
2023-02-11T09:20:19.992Z,26.35
2023-02-11T09:22:36.676Z,26.33
2023-02-11T09:24:53.393Z,25.95
2023-02-11T09:27:10.130Z,27.33
2023-02-11T09:29:26.457Z,25.02
2023-02-11T09:31:42.972Z,26.40
2023-02-11T09:33:59.575Z,26.20
2023-02-11T09:36:15.957Z,24.67
2023-02-11T09:38:32.472Z,26.67
2023-02-11T09:40:49.517Z,25.88
2023-02-11T09:43:06.411Z,26.63
2023-02-11T09:45:22.948Z,26.77
2023-02-11T09:47:39.722Z,25.80
2023-02-11T09:49:56.460Z,25.55
2023-02-11T09:52:13.165Z,24.85
2023-02-11T09:54:29.952Z,27.05
2023-02-11T09:56:46.272Z,25.73
2023-02-11T09:59:02.858Z,26.25
2023-02-11T10:01:21.009Z,25.35
2023-02-11T10:03:37.860Z,25.35
2023-02-11T10:05:54.403Z,26.40
2023-02-11T10:08:11.077Z,24.45
2023-02-11T10:10:27.469Z,22.05
2023-02-11T10:12:44.290Z,20.48
2023-02-11T10:15:00.966Z,20.50
2023-02-11T10:17:17.749Z,21.60
2023-02-11T10:19:34.518Z,17.67
2023-02-11T10:21:50.953Z,17.52
2023-02-11T10:24:07.632Z,17.25
2023-02-11T10:26:24.323Z,16.50
2023-02-11T10:28:41.170Z,17.55
2023-02-11T10:30:57.790Z,16.05
2023-02-11T10:33:14.545Z,14.73
2023-02-11T10:35:31.099Z,15.90
2023-02-11T10:37:47.844Z,15.68
2023-02-11T10:40:04.317Z,14.43
2023-02-11T10:42:20.785Z,14.02
2023-02-11T10:44:37.229Z,13.68
2023-02-11T10:46:53.674Z,14.20
2023-02-11T10:49:10.351Z,14.40
2023-02-11T10:51:27.065Z,13.00
2023-02-11T10:53:43.894Z,11.13
2023-02-11T10:56:00.642Z,11.48
2023-02-11T10:58:17.062Z,13.20
2023-02-11T11:00:33.730Z,17.35
2023-02-11T11:02:50.299Z,13.88
2023-02-11T11:05:06.799Z,11.65
2023-02-11T11:07:23.263Z,11.48
2023-02-11T11:09:39.654Z,11.45
2023-02-11T11:11:56.196Z,15.10
2023-02-11T11:14:12.682Z,15.60
2023-02-11T11:16:29.110Z,19.55
2023-02-11T11:18:45.858Z,28.30
2023-02-11T11:21:02.420Z,21.00
2023-02-11T11:23:19.124Z,21.15
2023-02-11T11:25:35.651Z,19.63
2023-02-11T11:27:52.113Z,21.08
2023-02-11T11:30:08.844Z,20.23
2023-02-11T11:32:25.554Z,14.45
2023-02-11T11:34:42.230Z,13.70
2023-02-11T11:36:58.654Z,14.05
2023-02-11T11:39:15.155Z,10.52
2023-02-11T11:41:31.873Z,9.57
2023-02-11T11:43:48.592Z,12.02
2023-02-11T11:46:05.242Z,12.00
2023-02-11T11:48:22.960Z,12.25
2023-02-11T11:50:39.690Z,12.57
2023-02-11T11:52:56.263Z,10.50
2023-02-11T11:55:12.997Z,8.50
2023-02-11T11:57:31.437Z,7.90
2023-02-11T11:59:47.857Z,7.50
2023-02-11T12:02:06.224Z,7.70
2023-02-11T12:04:23.904Z,7.38
2023-02-11T12:06:40.655Z,11.40
2023-02-11T12:08:57.104Z,12.75
2023-02-11T12:11:13.783Z,16.38
2023-02-11T12:13:30.254Z,11.20
2023-02-11T12:15:46.713Z,8.45
2023-02-11T12:18:03.119Z,10.30
2023-02-11T12:20:19.785Z,9.38
2023-02-11T12:22:36.189Z,8.55
2023-02-11T12:24:53.543Z,8.80
2023-02-11T12:27:10.206Z,7.55
2023-02-11T12:29:26.613Z,6.85
2023-02-11T12:31:43.012Z,6.20
2023-02-11T12:33:59.698Z,6.63
2023-02-11T12:36:16.364Z,6.20
2023-02-11T12:38:33.018Z,7.88
2023-02-11T12:40:50.120Z,11.57
2023-02-11T12:43:06.953Z,5.55
2023-02-11T12:45:23.642Z,6.80
2023-02-11T12:47:40.145Z,5.97
2023-02-11T12:49:57.156Z,12.73
2023-02-11T12:52:13.664Z,8.13
2023-02-11T12:54:29.998Z,10.73
2023-02-11T12:56:46.471Z,10.30
2023-02-11T12:59:04.261Z,5.90
2023-02-11T13:01:20.737Z,4.93
2023-02-11T13:03:37.214Z,4.93
2023-02-11T13:05:53.643Z,4.63
2023-02-11T13:08:09.976Z,4.45
2023-02-11T13:10:26.532Z,4.50
2023-02-11T13:12:43.241Z,5.05
2023-02-11T13:14:59.873Z,5.15
2023-02-11T13:17:16.346Z,4.90
2023-02-11T13:19:33.952Z,5.20
2023-02-11T13:21:50.600Z,5.05
2023-02-11T13:24:07.305Z,5.80
2023-02-11T13:26:24.743Z,5.63
2023-02-11T13:28:41.467Z,13.35
2023-02-11T13:30:58.352Z,9.32
2023-02-11T13:33:15.070Z,10.35
2023-02-11T13:35:31.535Z,13.15
2023-02-11T13:37:48.234Z,12.43
2023-02-11T13:40:04.670Z,35.10
2023-02-11T13:42:21.225Z,16.20
2023-02-11T13:44:37.687Z,11.68
2023-02-11T13:46:54.193Z,11.52
2023-02-11T13:49:10.943Z,9.48
2023-02-11T13:51:27.278Z,7.50
2023-02-11T13:53:43.915Z,5.75
2023-02-11T13:56:00.674Z,5.07
2023-02-11T13:58:17.391Z,7.32
2023-02-11T14:00:33.840Z,4.25
2023-02-11T14:02:50.396Z,3.70
2023-02-11T14:05:07.216Z,3.65
2023-02-11T14:07:23.951Z,7.03
2023-02-11T14:09:40.675Z,5.00
2023-02-11T14:11:57.384Z,4.63
2023-02-11T14:14:13.905Z,4.00
2023-02-11T14:16:38.000Z,4.32
2023-02-11T14:18:55.235Z,4.10
2023-02-11T14:21:11.903Z,3.53
2023-02-11T14:23:28.385Z,3.50
2023-02-11T14:25:45.023Z,10.05
2023-02-11T14:28:01.469Z,6.53
2023-02-11T14:30:17.882Z,3.80
2023-02-11T14:32:34.312Z,3.63
2023-02-11T14:34:50.655Z,3.63
2023-02-11T14:37:07.042Z,3.78
2023-02-11T14:39:23.725Z,7.57
2023-02-11T14:41:40.086Z,5.95
2023-02-11T14:43:56.560Z,4.53
2023-02-11T14:46:13.274Z,4.72
2023-02-11T14:48:29.993Z,5.25
2023-02-11T14:50:47.731Z,6.60
2023-02-11T14:53:04.465Z,9.50
2023-02-11T14:55:23.312Z,6.10
2023-02-11T14:57:39.786Z,22.52
2023-02-11T14:59:56.514Z,13.00
2023-02-11T15:02:13.286Z,12.07
2023-02-11T15:04:29.821Z,7.40
2023-02-11T15:06:47.399Z,6.38
2023-02-11T15:09:04.172Z,7.80
2023-02-11T15:11:20.908Z,16.67
2023-02-11T15:13:39.946Z,7.45
2023-02-11T15:15:57.743Z,9.75
2023-02-11T15:18:14.452Z,15.57
2023-02-11T15:20:31.190Z,11.68
2023-02-11T15:22:47.890Z,14.05
2023-02-11T15:25:04.250Z,15.48
2023-02-11T15:27:21.198Z,15.55
2023-02-11T15:29:39.096Z,15.80
2023-02-11T15:31:55.728Z,10.35
2023-02-11T15:34:12.198Z,9.45
2023-02-11T15:36:28.876Z,9.10
2023-02-11T15:38:45.625Z,10.45
2023-02-11T15:41:02.153Z,8.65
2023-02-11T15:43:19.673Z,7.65
2023-02-11T15:45:36.451Z,7.80
2023-02-11T15:47:53.139Z,6.72
2023-02-11T15:50:09.872Z,7.50
2023-02-11T15:52:26.198Z,7.20
2023-02-11T15:54:43.021Z,7.60
2023-02-11T15:57:00.802Z,7.00
2023-02-11T15:59:18.301Z,7.03
2023-02-11T16:01:34.823Z,6.40
2023-02-11T16:03:52.580Z,6.60
2023-02-11T16:06:09.288Z,6.90
2023-02-11T16:08:26.083Z,6.63
2023-02-11T16:10:42.585Z,6.63
2023-02-11T16:12:59.371Z,6.82
2023-02-11T16:15:17.226Z,7.07
2023-02-11T16:17:33.615Z,6.88
2023-02-11T16:19:49.920Z,6.55
2023-02-11T16:22:06.362Z,5.97
2023-02-11T16:24:23.903Z,4.20
2023-02-11T16:26:40.389Z,4.57
2023-02-11T16:28:57.037Z,3.88
2023-02-11T16:31:13.624Z,4.40
2023-02-11T16:33:30.427Z,4.00
2023-02-11T16:35:46.963Z,4.93
2023-02-11T16:38:03.633Z,7.90
2023-02-11T16:40:20.398Z,17.15
2023-02-11T16:42:37.069Z,9.82
2023-02-11T16:44:53.764Z,6.50
2023-02-11T16:47:10.552Z,10.70
2023-02-11T16:49:27.233Z,11.77
2023-02-11T16:51:43.955Z,13.80
2023-02-11T16:54:00.551Z,11.68
2023-02-11T16:56:17.263Z,11.07
2023-02-11T16:58:33.965Z,10.02
2023-02-11T17:00:50.772Z,8.75
2023-02-11T17:03:07.351Z,5.95
2023-02-11T17:05:23.906Z,5.30
2023-02-11T17:07:40.401Z,6.43
2023-02-11T17:09:56.765Z,5.55
2023-02-11T17:12:13.033Z,4.50
2023-02-11T17:14:29.769Z,7.28
2023-02-11T17:16:46.522Z,8.88
2023-02-11T17:19:03.081Z,6.95
2023-02-11T17:21:19.581Z,7.60
2023-02-11T17:23:35.956Z,8.25
2023-02-11T17:25:52.623Z,7.10
2023-02-11T17:28:09.585Z,6.68
2023-02-11T17:30:25.980Z,5.55
2023-02-11T17:32:42.484Z,8.35
2023-02-11T17:34:59.271Z,6.75
2023-02-11T17:37:15.689Z,7.25
2023-02-11T17:39:32.435Z,8.98
2023-02-11T17:41:48.960Z,8.88
2023-02-11T17:44:05.327Z,8.38
2023-02-11T17:46:21.832Z,6.75
2023-02-11T17:48:38.504Z,6.63
2023-02-11T17:50:54.967Z,7.07
2023-02-11T17:53:11.347Z,6.55
2023-02-11T17:55:27.850Z,6.55
2023-02-11T17:57:44.193Z,5.95
2023-02-11T18:00:00.654Z,4.07
2023-02-11T18:02:17.181Z,3.80
2023-02-11T18:04:33.902Z,3.95
2023-02-11T18:06:50.363Z,4.25
2023-02-11T18:09:06.754Z,3.97
2023-02-11T18:11:23.130Z,4.15
2023-02-11T18:13:39.542Z,6.10
2023-02-11T18:15:56.349Z,5.75
2023-02-11T18:18:13.020Z,5.10
2023-02-11T18:20:29.548Z,5.90
2023-02-11T18:22:45.994Z,6.90
2023-02-11T18:25:02.462Z,5.28
2023-02-11T18:27:19.237Z,5.53
2023-02-11T18:29:36.634Z,5.63
2023-02-11T18:31:53.057Z,5.97
2023-02-11T18:34:10.703Z,6.28
2023-02-11T18:36:27.282Z,5.07
2023-02-11T18:38:44.148Z,5.45
2023-02-11T18:41:00.539Z,7.45
2023-02-11T18:43:17.004Z,10.90
2023-02-11T18:45:33.395Z,9.73
2023-02-11T18:47:49.804Z,9.73
2023-02-11T18:50:06.208Z,10.10
2023-02-11T18:52:23.310Z,8.98
2023-02-11T18:54:39.842Z,9.73
2023-02-11T18:56:56.426Z,7.40
2023-02-11T18:59:12.861Z,5.80
2023-02-11T19:01:29.615Z,5.47
2023-02-11T19:03:46.188Z,5.85
2023-02-11T19:06:02.617Z,6.78
2023-02-11T19:08:19.000Z,7.90
2023-02-11T19:10:35.686Z,6.15
2023-02-11T19:12:52.175Z,5.78
2023-02-11T19:15:08.737Z,5.10
2023-02-11T19:17:25.144Z,8.13
2023-02-11T19:19:41.593Z,6.47
2023-02-11T19:21:58.202Z,6.72
2023-02-11T19:24:14.712Z,4.70
2023-02-11T19:26:31.040Z,4.75
2023-02-11T19:28:47.525Z,4.63
2023-02-11T19:31:04.351Z,4.10
2023-02-11T19:33:20.853Z,4.10
2023-02-11T19:35:37.585Z,3.75
2023-02-11T19:37:54.308Z,4.00
2023-02-11T19:40:11.058Z,4.70
2023-02-11T19:42:27.961Z,5.10
2023-02-11T19:44:45.222Z,4.65
2023-02-11T19:47:02.760Z,4.35
2023-02-11T19:49:19.490Z,4.28
2023-02-11T19:51:36.247Z,3.60
2023-02-11T19:53:52.995Z,3.80
2023-02-11T19:56:09.389Z,3.60
2023-02-11T19:58:26.900Z,3.92
2023-02-11T20:00:43.700Z,3.53
2023-02-11T20:03:00.311Z,3.65
2023-02-11T20:05:16.713Z,3.90
2023-02-11T20:07:34.142Z,3.38
2023-02-11T20:09:50.874Z,4.18
2023-02-11T20:12:07.603Z,4.40
2023-02-11T20:14:26.860Z,3.97
2023-02-11T20:16:49.266Z,3.53
2023-02-11T20:19:06.191Z,4.45
2023-02-11T20:21:22.677Z,3.97
2023-02-11T20:23:39.016Z,4.30
2023-02-11T20:25:55.684Z,3.90
2023-02-11T20:28:12.198Z,4.57
2023-02-11T20:30:28.954Z,5.50
2023-02-11T20:32:45.564Z,4.43
2023-02-11T20:35:01.981Z,3.88
2023-02-11T20:37:21.046Z,3.92
2023-02-11T20:39:39.897Z,4.00
2023-02-11T20:44:30.534Z,4.55
2023-02-11T20:46:47.035Z,4.60
2023-02-11T20:49:03.617Z,4.05
2023-02-11T20:51:20.036Z,3.78
2023-02-11T20:53:36.473Z,3.75
2023-02-11T20:55:53.156Z,4.00
2023-02-11T20:58:09.773Z,3.50
2023-02-11T21:00:26.228Z,4.10
2023-02-11T21:02:42.694Z,3.92
2023-02-11T21:04:59.183Z,3.70
2023-02-11T21:07:15.930Z,4.05
2023-02-11T21:09:32.358Z,4.00
2023-02-11T21:11:48.735Z,3.83
2023-02-11T21:14:06.600Z,4.20
2023-02-11T21:16:23.430Z,4.50
2023-02-11T21:18:39.826Z,5.03
2023-02-11T21:20:56.118Z,5.22
2023-02-11T21:23:12.861Z,4.50
2023-02-11T21:25:29.287Z,4.68
2023-02-11T21:27:47.063Z,4.25
2023-02-11T21:30:03.754Z,4.57
2023-02-11T21:32:20.295Z,4.35
2023-02-11T21:34:37.062Z,7.03
2023-02-11T21:36:54.564Z,8.27
2023-02-11T21:39:11.056Z,7.70
2023-02-11T21:41:27.466Z,7.68
2023-02-11T21:43:44.828Z,8.68
2023-02-11T21:46:01.239Z,9.40
2023-02-11T21:48:17.653Z,10.38
2023-02-11T21:50:34.073Z,10.15
2023-02-11T21:52:50.469Z,11.75
2023-02-11T21:55:07.138Z,10.90
2023-02-11T21:57:23.462Z,11.45
2023-02-11T21:59:39.937Z,11.43
2023-02-11T22:01:56.707Z,11.55
2023-02-11T22:04:13.255Z,12.52
2023-02-11T22:06:29.751Z,14.32
2023-02-11T22:08:46.557Z,12.57
2023-02-11T22:11:03.249Z,10.80
2023-02-11T22:13:19.595Z,10.20
2023-02-11T22:15:36.256Z,9.38
2023-02-11T22:17:52.903Z,8.88
2023-02-11T22:20:09.459Z,7.10
2023-02-11T22:22:25.900Z,6.53
2023-02-11T22:24:42.600Z,6.35
2023-02-11T22:26:59.049Z,6.55
2023-02-11T22:29:15.715Z,7.30
2023-02-11T22:31:32.296Z,8.27
2023-02-11T22:33:49.130Z,8.40
2023-02-11T22:36:05.790Z,10.15
2023-02-11T22:38:22.414Z,13.07
2023-02-11T22:40:39.878Z,11.93
2023-02-11T22:42:56.285Z,12.75
2023-02-11T22:45:12.658Z,12.68
2023-02-11T22:47:29.076Z,13.65
2023-02-11T22:49:45.738Z,14.57
2023-02-11T22:52:02.043Z,13.90
2023-02-11T22:54:18.743Z,12.00
2023-02-11T22:56:35.450Z,11.13
2023-02-11T22:58:52.216Z,8.65
2023-02-11T23:01:08.928Z,7.32
2023-02-11T23:03:25.408Z,7.50
2023-02-11T23:05:42.075Z,8.18
2023-02-11T23:07:58.777Z,8.20
2023-02-11T23:10:15.233Z,9.52
2023-02-11T23:12:31.684Z,9.43
2023-02-11T23:14:48.302Z,9.25
2023-02-11T23:17:04.746Z,8.18
2023-02-11T23:19:21.461Z,7.28
2023-02-11T23:21:37.941Z,7.28
2023-02-11T23:23:54.227Z,8.45
2023-02-11T23:26:10.942Z,8.63
2023-02-11T23:28:28.676Z,9.00
2023-02-11T23:30:45.184Z,8.73
2023-02-11T23:33:01.600Z,8.60
2023-02-11T23:35:18.056Z,8.57
2023-02-11T23:37:34.345Z,8.45
2023-02-11T23:39:50.985Z,7.72
2023-02-11T23:42:08.685Z,8.60
2023-02-11T23:44:25.347Z,8.68
2023-02-11T23:46:41.894Z,8.65
2023-02-11T23:48:58.702Z,8.43
2023-02-11T23:51:15.452Z,9.13
2023-02-11T23:53:31.846Z,9.90
2023-02-11T23:55:48.283Z,11.93
2023-02-11T23:58:04.796Z,11.02
